Time;durP1;ratioP1;P1;durP2;ratioP2;P2;SDS_P1;SDS_P2;PMS_P1;PMS_P2;Temp;Humidity;BMP_temperature;BMP_pressure;BME280_temperature;BME280_humidity;BME280_pressure;Samples;Min_cycle;Max_cycle;Signal;HPM_P1;HPM_P2
2022/02/24 00:01:31;;;;;;;11.70;4.72;;;;;;;0.57;84.32;98475.69;1698914;84;21028;-85
2022/02/24 00:03:58;;;;;;;10.63;5.08;;;;;;;0.54;84.67;98476.06;1712811;84;21067;-86
2022/02/24 00:06:26;;;;;;;9.73;5.17;;;;;;;0.52;84.66;98481.25;1708995;84;21012;-82
2022/02/24 00:08:53;;;;;;;17.80;5.70;;;;;;;0.50;84.58;98477.30;1713517;81;20994;-82
2022/02/24 00:11:19;;;;;;;10.10;5.60;;;;;;;0.48;84.67;98479.02;1691212;84;21004;-81
2022/02/24 00:13:46;;;;;;;11.22;5.28;;;;;;;0.47;84.52;98478.57;1681075;85;21055;-79
2022/02/24 00:16:12;;;;;;;10.38;5.85;;;;;;;0.43;84.75;98474.55;1722284;83;21433;-79
2022/02/24 00:18:39;;;;;;;10.43;5.40;;;;;;;0.43;84.21;98485.88;1703818;84;21000;-79
2022/02/24 00:21:05;;;;;;;14.73;5.03;;;;;;;0.41;84.14;98486.25;1678556;84;21032;-82
2022/02/24 00:23:32;;;;;;;11.35;5.22;;;;;;;0.35;84.60;98480.93;1732144;83;21039;-81
2022/02/24 00:25:58;;;;;;;13.48;5.72;;;;;;;0.37;84.71;98487.03;1700302;84;21007;-82
2022/02/24 00:28:25;;;;;;;10.00;4.85;;;;;;;0.37;84.20;98485.33;1731624;83;21046;-82
2022/02/24 00:30:51;;;;;;;11.57;5.00;;;;;;;0.39;84.29;98474.92;1711927;84;21027;-82
2022/02/24 00:33:18;;;;;;;9.10;4.65;;;;;;;0.37;84.67;98480.11;1712575;84;20988;-82
2022/02/24 00:35:44;;;;;;;8.15;4.40;;;;;;;0.39;84.26;98482.75;1732498;83;21026;-79
2022/02/24 00:38:11;;;;;;;11.55;5.42;;;;;;;0.33;85.04;98480.89;1712574;84;21074;-82
2022/02/24 00:40:38;;;;;;;10.35;4.85;;;;;;;0.34;84.54;98481.34;1712990;83;20992;-79
2022/02/24 00:43:04;;;;;;;8.43;4.80;;;;;;;0.30;84.81;98483.87;1682747;85;21485;-79
2022/02/24 00:45:32;;;;;;;14.47;4.75;;;;;;;0.26;84.98;98477.28;1693035;84;21051;-79
2022/02/24 00:47:59;;;;;;;7.33;4.60;;;;;;;0.21;84.44;98479.36;1690030;83;21029;-79
2022/02/24 00:50:26;;;;;;;7.58;4.25;;;;;;;0.20;84.61;98473.27;1701559;84;21593;-80
2022/02/24 00:52:56;;;;;;;10.43;4.87;;;;;;;0.22;84.84;98475.91;1685115;84;21499;-80
2022/02/24 00:55:22;;;;;;;9.35;4.47;;;;;;;0.25;84.60;98479.89;1703566;84;21479;-80
2022/02/24 00:57:49;;;;;;;10.95;4.60;;;;;;;0.27;84.63;98482.09;1703591;84;21006;-79
2022/02/24 01:00:16;;;;;;;10.63;4.45;;;;;;;0.30;85.18;98480.85;1703547;84;21002;-80
2022/02/24 01:02:42;;;;;;;10.48;4.70;;;;;;;0.36;85.71;98476.16;1679634;84;21013;-80
2022/02/24 01:05:09;;;;;;;9.85;4.25;;;;;;;0.41;85.21;98477.57;1702033;84;20965;-80
2022/02/24 01:07:35;;;;;;;6.67;4.05;;;;;;;0.42;85.23;98476.71;1732848;83;21010;-80
2022/02/24 01:10:05;;;;;;;9.03;4.60;;;;;;;0.46;85.30;98476.78;1701755;84;21432;-80
2022/02/24 01:12:32;;;;;;;7.92;3.95;;;;;;;0.46;85.32;98475.92;1701462;84;21009;-80
2022/02/24 01:15:06;;;;;;;11.10;4.78;;;;;;;0.42;85.20;98480.62;1732872;83;21415;-80
2022/02/24 01:17:27;;;;;;;9.00;4.97;;;;;;;0.42;85.24;98475.41;1702813;84;21507;-80
2022/02/24 01:19:54;;;;;;;11.50;4.33;;;;;;;0.35;85.01;98472.69;1701518;84;21011;-80
2022/02/24 01:22:20;;;;;;;14.25;5.47;;;;;;;0.28;85.03;98469.50;1730866;83;21044;-80
2022/02/24 01:24:47;;;;;;;10.03;4.40;;;;;;;0.19;84.83;98474.12;1710952;84;21051;-81
2022/02/24 01:27:14;;;;;;;9.08;4.75;;;;;;;0.11;85.03;98473.97;1701962;84;21029;-80
2022/02/24 01:29:40;;;;;;;11.83;5.12;;;;;;;0.07;85.04;98468.64;1687957;84;21048;-79
2022/02/24 01:32:08;;;;;;;7.37;4.70;;;;;;;-0.02;84.82;98469.34;1703875;84;21379;-81
2022/02/24 01:34:35;;;;;;;9.13;3.75;;;;;;;-0.09;84.58;98468.78;1675398;85;21016;-79
2022/02/24 01:37:02;;;;;;;7.85;4.28;;;;;;;-0.17;84.51;98469.48;1674128;86;20957;-79
2022/02/24 01:39:29;;;;;;;10.50;5.10;;;;;;;-0.29;84.66;98477.05;1704329;83;20943;-80
2022/02/24 01:41:55;;;;;;;10.00;5.08;;;;;;;-0.34;84.82;98484.74;1700896;84;20984;-79
2022/02/24 01:44:23;;;;;;;8.08;4.53;;;;;;;-0.44;84.77;98480.18;1683528;85;21043;-80
2022/02/24 01:46:50;;;;;;;12.58;4.92;;;;;;;-0.52;85.18;98478.70;1703846;84;21043;-80
2022/02/24 01:49:20;;;;;;;11.73;4.95;;;;;;;-0.54;85.17;98481.71;1702207;83;21043;-80
2022/02/24 01:51:45;;;;;;;10.45;4.55;;;;;;;-0.57;85.08;98477.72;1716822;83;21393;-79
2022/02/24 01:54:11;;;;;;;8.48;4.25;;;;;;;-0.63;85.75;98482.36;1680498;85;21124;-79
2022/02/24 01:56:38;;;;;;;11.00;4.60;;;;;;;-0.63;85.91;98486.70;1710350;84;20995;-79
2022/02/24 01:59:05;;;;;;;9.00;4.42;;;;;;;-0.68;85.98;98480.96;1680847;85;21051;-79
2022/02/24 02:01:32;;;;;;;10.75;4.60;;;;;;;-0.74;85.49;98478.22;1718203;83;21036;-79
2022/02/24 02:03:59;;;;;;;10.60;5.20;;;;;;;-0.72;85.98;98474.33;1712936;84;21129;-80
2022/02/24 02:06:26;;;;;;;9.25;4.00;;;;;;;-0.75;85.79;98471.23;1725489;83;20988;-79
2022/02/24 02:08:52;;;;;;;11.48;5.55;;;;;;;-0.82;86.57;98475.85;1723412;83;21013;-79
2022/02/24 02:11:19;;;;;;;9.50;4.80;;;;;;;-0.87;86.19;98474.42;1714297;83;21076;-79
2022/02/24 02:13:45;;;;;;;15.25;4.78;;;;;;;-0.91;85.94;98480.83;1725525;83;21019;-80
2022/02/24 02:16:12;;;;;;;11.20;4.92;;;;;;;-0.96;85.96;98484.20;1725478;83;21438;-79
2022/02/24 02:18:39;;;;;;;13.65;5.40;;;;;;;-0.97;86.53;98478.95;1725221;83;21051;-79
2022/02/24 02:21:06;;;;;;;10.63;5.03;;;;;;;-1.00;85.93;98479.75;1680881;85;21031;-80
2022/02/24 02:23:33;;;;;;;12.35;4.80;;;;;;;-1.01;86.10;98476.70;1718407;83;21454;-80
2022/02/24 02:26:00;;;;;;;15.20;5.65;;;;;;;-1.03;87.08;98481.00;1713340;84;21381;-80
2022/02/24 02:28:26;;;;;;;9.98;4.60;;;;;;;-1.01;86.64;98481.01;1725545;83;21051;-80
2022/02/24 02:30:53;;;;;;;12.73;5.20;;;;;;;-0.99;86.85;98483.25;1713308;83;21098;-81
2022/02/24 02:33:20;;;;;;;11.25;4.70;;;;;;;-0.98;86.84;98478.09;1712504;84;20963;-80
2022/02/24 02:35:46;;;;;;;8.20;4.33;;;;;;;-0.98;87.02;98485.89;1682905;85;21043;-80
2022/02/24 02:38:13;;;;;;;10.40;4.40;;;;;;;-1.00;87.18;98486.26;1718457;83;21020;-80
2022/02/24 02:40:39;;;;;;;12.58;4.55;;;;;;;-0.99;87.34;98481.50;1689468;84;20988;-80
2022/02/24 02:43:10;;;;;;;6.78;3.90;;;;;;;-1.01;87.24;98486.22;1712710;84;21457;-80
2022/02/24 02:45:38;;;;;;;10.80;3.80;;;;;;;-1.03;87.20;98490.11;1682589;85;21043;-80
2022/02/24 02:48:06;;;;;;;8.08;4.20;;;;;;;-1.05;87.22;98493.07;1713655;82;21480;-80
2022/02/24 02:50:34;;;;;;;8.00;4.47;;;;;;;-1.09;87.09;98495.13;1684306;85;21447;-80
2022/02/24 02:53:05;;;;;;;10.40;4.53;;;;;;;-1.10;86.68;98495.98;1723281;83;21055;-80
2022/02/24 02:55:32;;;;;;;6.85;3.95;;;;;;;-1.14;86.87;98496.33;1713008;84;21046;-80
2022/02/24 02:57:59;;;;;;;10.50;4.65;;;;;;;-1.17;86.74;98501.44;1704571;84;21024;-80
2022/02/24 03:00:25;;;;;;;12.10;4.12;;;;;;;-1.18;86.58;98506.19;1713063;84;20975;-80
2022/02/24 03:02:52;;;;;;;6.97;4.37;;;;;;;-1.20;86.45;98504.84;1684447;85;21085;-80
2022/02/24 03:05:18;;;;;;;14.53;5.00;;;;;;;-1.23;86.57;98515.59;1723351;83;20996;-80
2022/02/24 03:07:45;;;;;;;15.58;5.05;;;;;;;-1.22;86.55;98514.75;1705119;84;21052;-80
2022/02/24 03:10:12;;;;;;;12.20;4.58;;;;;;;-1.25;86.58;98518.16;1694736;85;21030;-80
2022/02/24 03:12:39;;;;;;;13.03;4.80;;;;;;;-1.27;86.47;98517.25;1677701;85;21027;-80
2022/02/24 03:15:13;;;;;;;13.75;5.08;;;;;;;-1.27;86.50;98513.75;1701461;84;21001;-80
2022/02/24 03:17:38;;;;;;;9.78;4.03;;;;;;;-1.29;86.47;98514.14;1683566;84;21063;-80
2022/02/24 03:20:06;;;;;;;8.28;4.33;;;;;;;-1.33;86.47;98507.55;1728453;83;21052;-80
2022/02/24 03:22:32;;;;;;;10.63;4.53;;;;;;;-1.33;86.73;98511.89;1727499;83;21051;-80
2022/02/24 03:24:59;;;;;;;9.78;4.67;;;;;;;-1.38;86.72;98501.35;1712942;84;21449;-80
2022/02/24 03:27:25;;;;;;;10.70;4.40;;;;;;;-1.40;86.51;98506.05;1712581;84;21063;-80
2022/02/24 03:29:52;;;;;;;9.25;4.35;;;;;;;-1.44;86.53;98511.59;1712919;84;21004;-80
2022/02/24 03:32:19;;;;;;;11.18;4.65;;;;;;;-1.46;86.60;98512.84;1713027;84;21060;-80
2022/02/24 03:34:45;;;;;;;10.95;4.47;;;;;;;-1.47;86.56;98511.50;1684459;85;21009;-80
2022/02/24 03:37:12;;;;;;;10.50;4.87;;;;;;;-1.49;87.10;98510.59;1722851;83;21040;-81
2022/02/24 03:39:39;;;;;;;10.00;5.05;;;;;;;-1.51;87.08;98514.85;1694982;85;21005;-80
2022/02/24 03:42:06;;;;;;;6.80;4.22;;;;;;;-1.50;86.81;98511.44;1694916;85;21041;-80
2022/02/24 03:44:33;;;;;;;7.92;4.45;;;;;;;-1.50;87.13;98512.30;1678136;85;21393;-80
2022/02/24 03:46:59;;;;;;;12.88;4.72;;;;;;;-1.52;86.72;98515.29;1701197;84;21025;-80
2022/02/24 03:49:25;;;;;;;10.48;4.80;;;;;;;-1.47;87.75;98513.70;1720769;83;21389;-81
2022/02/24 03:51:52;;;;;;;8.58;4.72;;;;;;;-1.44;87.13;98510.70;1684297;85;21059;-81
2022/02/24 03:54:20;;;;;;;13.98;5.10;;;;;;;-1.40;87.34;98516.45;1724849;83;21024;-81
2022/02/24 03:56:46;;;;;;;14.28;4.70;;;;;;;-1.39;87.13;98520.40;1684219;85;21043;-81
2022/02/24 03:59:13;;;;;;;14.78;5.70;;;;;;;-1.37;87.89;98521.30;1728790;83;21431;-81
2022/02/24 04:01:39;;;;;;;10.95;4.85;;;;;;;-1.32;87.20;98514.95;1712978;84;21457;-80
2022/02/24 04:04:06;;;;;;;6.95;4.65;;;;;;;-1.26;87.30;98522.01;1684428;85;21124;-79
2022/02/24 04:06:33;;;;;;;18.70;5.58;;;;;;;-1.24;87.71;98521.64;1713054;83;21431;-80
2022/02/24 04:08:59;;;;;;;13.35;5.50;;;;;;;-1.22;87.41;98524.75;1694286;84;21030;-81
2022/02/24 04:11:26;;;;;;;9.18;4.70;;;;;;;-1.19;87.37;98518.74;1677604;85;21083;-82
2022/02/24 04:13:53;;;;;;;11.97;5.47;;;;;;;-1.15;87.12;98522.30;1700969;84;21056;-81
2022/02/24 04:16:19;;;;;;;12.98;5.20;;;;;;;-1.10;87.23;98522.89;1684637;84;21039;-82
2022/02/24 04:18:45;;;;;;;14.85;5.42;;;;;;;-1.10;87.08;98521.99;1730274;83;20988;-82
2022/02/24 04:21:12;;;;;;;12.50;5.53;;;;;;;-1.10;87.21;98523.30;1712816;84;20992;-81
2022/02/24 04:23:39;;;;;;;12.53;5.50;;;;;;;-1.04;87.23;98522.14;1730588;83;21439;-80
2022/02/24 04:26:05;;;;;;;10.95;5.92;;;;;;;-1.02;87.03;98524.38;1729379;82;21063;-80
2022/02/24 04:28:32;;;;;;;13.90;6.45;;;;;;;-1.02;87.05;98527.39;1712889;84;21043;-81
2022/02/24 04:30:58;;;;;;;10.43;6.47;;;;;;;-1.01;87.16;98532.64;1712652;84;21071;-80
2022/02/24 04:33:25;;;;;;;12.07;7.55;;;;;;;-0.98;87.16;98539.64;1684278;85;21028;-81
2022/02/24 04:35:51;;;;;;;16.32;7.45;;;;;;;-0.95;87.61;98534.09;1722810;83;21024;-81
2022/02/24 04:38:18;;;;;;;13.90;7.10;;;;;;;-0.92;87.21;98528.52;1683965;85;20980;-81
2022/02/24 04:40:45;;;;;;;14.07;7.33;;;;;;;-0.91;87.05;98540.68;1724905;83;21016;-81
2022/02/24 04:43:11;;;;;;;13.38;7.15;;;;;;;-0.94;86.98;98541.48;1724736;83;21020;-81
2022/02/24 04:45:38;;;;;;;14.00;7.12;;;;;;;-0.92;87.22;98546.73;1725312;83;21121;-81
2022/02/24 04:48:06;;;;;;;13.68;6.95;;;;;;;-0.94;87.15;98543.67;1724936;83;20997;-81
2022/02/24 04:50:34;;;;;;;15.85;8.65;;;;;;;-0.93;87.07;98552.34;1724361;83;21419;-81
2022/02/24 04:53:02;;;;;;;14.23;6.75;;;;;;;-0.88;87.59;98555.94;1724449;83;21478;-81
2022/02/24 04:55:28;;;;;;;11.33;6.58;;;;;;;-0.89;87.04;98562.41;1710462;83;21020;-81
2022/02/24 04:57:55;;;;;;;12.73;6.42;;;;;;;-0.89;86.91;98561.10;1711385;84;21030;-81
2022/02/24 05:00:22;;;;;;;15.72;6.53;;;;;;;-0.88;87.19;98570.26;1705472;81;21019;-81
2022/02/24 05:02:49;;;;;;;12.85;7.40;;;;;;;-0.88;87.49;98564.19;1730763;82;20958;-82
2022/02/24 05:05:16;;;;;;;12.13;6.55;;;;;;;-0.85;87.09;98574.25;1709132;84;21019;-81
2022/02/24 05:07:42;;;;;;;12.63;5.08;;;;;;;-0.83;86.91;98573.85;1709623;84;20976;-82
2022/02/24 05:10:09;;;;;;;15.43;6.95;;;;;;;-0.84;87.69;98569.91;1709825;83;21044;-81
2022/02/24 05:12:36;;;;;;;14.87;6.97;;;;;;;-0.73;87.43;98576.69;1741374;81;21003;-81
2022/02/24 05:15:03;;;;;;;13.58;7.72;;;;;;;-0.70;86.97;98580.25;1740267;81;20985;-81
2022/02/24 05:17:30;;;;;;;16.85;7.35;;;;;;;-0.73;86.95;98580.19;1734350;81;21366;-82
2022/02/24 05:20:01;;;;;;;14.75;7.50;;;;;;;-0.71;86.76;98583.70;1734155;81;21038;-81
2022/02/24 05:22:28;;;;;;;12.50;6.67;;;;;;;-0.72;86.69;98582.35;1740924;82;21036;-82
2022/02/24 05:24:54;;;;;;;18.75;7.17;;;;;;;-0.77;86.59;98588.76;1709560;84;21310;-81
2022/02/24 05:27:21;;;;;;;12.78;6.03;;;;;;;-0.77;86.83;98588.76;1728605;83;20979;-81
2022/02/24 05:29:48;;;;;;;13.48;6.05;;;;;;;-0.78;86.91;98605.63;1760125;81;21007;-81
2022/02/24 05:32:14;;;;;;;13.48;5.67;;;;;;;-0.82;86.56;98607.28;1719465;83;21013;-81
2022/02/24 05:34:41;;;;;;;12.53;6.20;;;;;;;-0.85;86.74;98606.78;1729780;83;21067;-81
2022/02/24 05:37:08;;;;;;;12.37;6.20;;;;;;;-0.86;86.82;98611.94;1704272;83;20996;-82
2022/02/24 05:39:34;;;;;;;14.20;6.42;;;;;;;-0.91;86.45;98611.83;1730086;83;21011;-81
2022/02/24 05:42:01;;;;;;;16.67;7.37;;;;;;;-0.93;86.51;98612.20;1720813;83;21410;-81
2022/02/24 05:44:28;;;;;;;14.68;7.03;;;;;;;-0.95;86.66;98614.75;1735342;82;21067;-81
2022/02/24 05:46:54;;;;;;;13.60;7.17;;;;;;;-0.97;86.66;98612.95;1719083;83;20984;-81
2022/02/24 05:49:21;;;;;;;17.75;6.87;;;;;;;-0.96;86.54;98617.30;1701904;84;21052;-80
2022/02/24 05:51:47;;;;;;;16.82;6.85;;;;;;;-0.97;86.61;98619.45;1717477;82;21496;-80
2022/02/24 05:54:15;;;;;;;15.03;6.83;;;;;;;-0.96;86.61;98623.41;1726507;82;21422;-81
2022/02/24 05:56:41;;;;;;;13.62;6.25;;;;;;;-0.95;86.58;98627.77;1733316;81;21456;-82
2022/02/24 05:59:08;;;;;;;15.70;6.97;;;;;;;-0.96;86.56;98623.81;1730617;83;21018;-85
2022/02/24 06:01:35;;;;;;;20.48;6.90;;;;;;;-0.95;86.66;98623.86;1705487;83;21094;-87
2022/02/24 06:04:01;;;;;;;14.60;6.87;;;;;;;-0.94;86.63;98623.05;1734181;82;20961;-83
2022/02/24 06:06:28;;;;;;;13.95;6.55;;;;;;;-0.96;86.57;98627.71;1740854;82;21001;-84
2022/02/24 06:08:55;;;;;;;18.12;7.92;;;;;;;-0.94;86.52;98632.56;1740295;82;21438;-82
2022/02/24 06:11:21;;;;;;;15.23;7.80;;;;;;;-0.95;86.50;98625.59;1703132;83;21049;-82
2022/02/24 06:13:48;;;;;;;17.45;7.80;;;;;;;-0.95;86.79;98631.66;1709624;84;21007;-82
2022/02/24 06:16:15;;;;;;;20.17;7.85;;;;;;;-0.90;86.80;98633.11;1684222;84;21041;-82
2022/02/24 06:18:42;;;;;;;17.35;8.58;;;;;;;-0.88;86.72;98627.51;1704183;84;21074;-82
2022/02/24 06:21:09;;;;;;;18.30;8.68;;;;;;;-0.87;87.79;98631.00;1704553;83;21001;-82
2022/02/24 06:23:35;;;;;;;13.95;8.78;;;;;;;-0.82;87.30;98631.56;1704131;84;20984;-82
2022/02/24 06:26:02;;;;;;;18.92;8.55;;;;;;;-0.79;87.41;98626.86;1702794;84;21192;-82
2022/02/24 06:28:29;;;;;;;18.70;8.83;;;;;;;-0.77;87.73;98626.91;1704352;84;20980;-82
2022/02/24 06:30:56;;;;;;;22.67;9.60;;;;;;;-0.71;87.38;98638.36;1708026;84;21095;-82
2022/02/24 06:33:22;;;;;;;20.40;10.18;;;;;;;-0.67;87.35;98638.02;1706853;84;20999;-82
2022/02/24 06:35:50;;;;;;;23.27;12.35;;;;;;;-0.64;87.37;98639.41;1734944;83;21421;-82
2022/02/24 06:38:16;;;;;;;26.73;13.65;;;;;;;-0.60;87.70;98634.74;1735194;83;21015;-82
2022/02/24 06:40:43;;;;;;;24.40;12.15;;;;;;;-0.59;87.66;98639.10;1720409;83;20996;-82
2022/02/24 06:43:10;;;;;;;25.32;12.60;;;;;;;-0.55;87.87;98634.44;1705909;84;21022;-82
2022/02/24 06:45:37;;;;;;;21.65;12.43;;;;;;;-0.49;87.32;98640.64;1705913;84;20987;-82
2022/02/24 06:48:04;;;;;;;31.35;13.15;;;;;;;-0.44;87.38;98644.23;1708352;83;21038;-82
2022/02/24 06:50:31;;;;;;;27.77;13.10;;;;;;;-0.39;87.33;98646.53;1734783;83;20995;-82
2022/02/24 06:52:58;;;;;;;30.68;12.88;;;;;;;-0.33;87.47;98643.22;1735152;83;21003;-81
2022/02/24 06:55:25;;;;;;;24.52;12.13;;;;;;;-0.30;87.36;98647.17;1735118;83;21034;-81
2022/02/24 06:57:54;;;;;;;24.57;12.58;;;;;;;-0.26;87.20;98638.59;1715063;83;21475;-81
2022/02/24 07:00:23;;;;;;;28.32;12.85;;;;;;;-0.22;87.03;98636.94;1705961;84;21078;-81
2022/02/24 07:02:49;;;;;;;26.37;11.95;;;;;;;-0.19;87.11;98639.22;1705909;84;20991;-81
2022/02/24 07:05:16;;;;;;;23.87;12.58;;;;;;;-0.12;87.45;98640.66;1705842;84;21014;-81
2022/02/24 07:07:42;;;;;;;22.17;11.70;;;;;;;-0.04;87.27;98639.98;1723764;83;21011;-81
2022/02/24 07:10:12;;;;;;;29.05;11.95;;;;;;;0.01;87.28;98633.59;1735035;83;21026;-79
2022/02/24 07:12:40;;;;;;;21.82;13.15;;;;;;;0.09;86.99;98630.72;1734980;83;20978;-82
2022/02/24 07:15:08;;;;;;;25.37;10.93;;;;;;;0.14;86.83;98633.45;1735149;83;21042;-79
2022/02/24 07:17:45;;;;;;;23.70;10.68;;;;;;;0.21;86.73;98632.73;1722420;83;21038;-80
2022/02/24 07:20:13;;;;;;;24.60;10.93;;;;;;;0.30;86.55;98633.79;1735085;83;21049;-80
2022/02/24 07:22:40;;;;;;;21.68;10.08;;;;;;;0.38;86.49;98637.45;1735300;83;20943;-80
2022/02/24 07:25:08;;;;;;;22.10;11.25;;;;;;;0.44;86.46;98640.59;1734988;83;21433;-79
2022/02/24 07:27:36;;;;;;;25.17;11.43;;;;;;;0.52;86.39;98639.05;1732471;83;21058;-80
2022/02/24 07:30:05;;;;;;;24.18;11.12;;;;;;;0.62;86.14;98640.13;1734917;83;21055;-80
2022/02/24 07:32:33;;;;;;;67.30;32.45;;;;;;;0.69;86.12;98638.50;1735105;83;21002;-81
2022/02/24 07:35:01;;;;;;;41.15;20.85;;;;;;;0.76;86.12;98623.03;1734988;83;20980;-81
2022/02/24 07:37:27;;;;;;;31.15;13.93;;;;;;;0.88;85.86;98628.03;1721361;83;21389;-81
2022/02/24 07:39:54;;;;;;;20.40;10.70;;;;;;;0.95;85.75;98629.03;1705811;84;20987;-81
2022/02/24 07:42:21;;;;;;;17.73;7.87;;;;;;;0.98;85.62;98620.83;1705913;84;21440;-81
2022/02/24 07:44:48;;;;;;;16.77;8.13;;;;;;;1.08;85.11;98628.84;1705842;84;21012;-81
2022/02/24 07:47:15;;;;;;;15.03;7.62;;;;;;;1.12;84.96;98622.38;1716231;83;21031;-81
2022/02/24 07:49:43;;;;;;;17.90;7.45;;;;;;;1.15;84.52;98626.37;1733382;83;21047;-80
2022/02/24 07:52:10;;;;;;;13.50;6.53;;;;;;;1.22;82.48;98623.45;1730470;83;21035;-81
2022/02/24 07:54:38;;;;;;;16.37;5.83;;;;;;;1.29;83.18;98625.75;1730290;83;21014;-81
2022/02/24 07:57:04;;;;;;;14.20;6.90;;;;;;;1.37;83.24;98622.82;1722398;83;20990;-81
2022/02/24 07:59:31;;;;;;;11.73;5.12;;;;;;;1.43;83.06;98626.88;1676308;86;21079;-80
2022/02/24 08:01:58;;;;;;;10.13;4.45;;;;;;;1.50;82.07;98634.36;1701362;84;21023;-81
2022/02/24 08:04:24;;;;;;;9.58;4.55;;;;;;;1.58;79.86;98630.16;1676319;86;21024;-81
2022/02/24 08:06:51;;;;;;;11.38;5.03;;;;;;;1.68;81.21;98627.28;1706318;83;21611;-81
2022/02/24 08:09:17;;;;;;;10.82;4.97;;;;;;;1.79;81.88;98629.19;1730589;83;20970;-81
2022/02/24 08:12:38;;;;;;;11.45;5.15;;;;;;;1.90;80.43;98627.61;1716856;83;20997;-81
2022/02/24 08:14:13;;;;;;;10.43;4.80;;;;;;;2.04;77.88;98635.66;1701612;84;21009;-81
2022/02/24 08:16:39;;;;;;;13.08;5.03;;;;;;;2.18;79.01;98626.73;1704256;83;21052;-81
2022/02/24 08:19:06;;;;;;;10.58;4.72;;;;;;;2.32;79.33;98623.44;1676322;86;21004;-81
2022/02/24 08:21:32;;;;;;;11.68;4.50;;;;;;;2.44;79.05;98621.39;1701239;84;21110;-81
2022/02/24 08:24:01;;;;;;;12.78;4.25;;;;;;;2.59;77.43;98625.95;1683586;84;21008;-81
2022/02/24 08:26:30;;;;;;;10.13;5.35;;;;;;;2.69;76.70;98627.83;1721141;83;21111;-81
2022/02/24 08:28:56;;;;;;;12.20;5.15;;;;;;;2.73;73.43;98628.31;1728949;83;21014;-81
2022/02/24 08:31:23;;;;;;;14.70;5.50;;;;;;;2.80;76.19;98621.84;1728257;83;20990;-80
2022/02/24 08:33:53;;;;;;;10.10;4.92;;;;;;;2.84;75.65;98621.02;1689986;84;20988;-81
2022/02/24 08:36:18;;;;;;;12.47;5.53;;;;;;;2.95;76.77;98617.23;1692247;84;21016;-81
2022/02/24 08:38:45;;;;;;;13.38;5.45;;;;;;;3.07;76.95;98618.65;1690693;84;21027;-81
2022/02/24 08:41:11;;;;;;;17.75;6.33;;;;;;;3.22;76.69;98622.30;1719143;83;21067;-81
2022/02/24 08:43:38;;;;;;;11.43;6.47;;;;;;;3.36;77.00;98623.31;1701258;84;21008;-81
2022/02/24 08:46:04;;;;;;;14.70;6.17;;;;;;;3.50;76.66;98627.39;1682390;84;21004;-81
2022/02/24 08:48:34;;;;;;;15.45;6.33;;;;;;;3.59;76.40;98622.66;1685523;84;21659;-81
2022/02/24 08:51:02;;;;;;;14.75;5.72;;;;;;;3.64;75.50;98622.27;1679815;84;21192;-81
2022/02/24 08:53:29;;;;;;;15.18;5.42;;;;;;;3.69;75.78;98618.36;1733710;82;21049;-81
2022/02/24 08:55:55;;;;;;;12.03;5.90;;;;;;;3.74;74.64;98625.82;1719237;83;21030;-81
2022/02/24 08:58:23;;;;;;;12.30;6.87;;;;;;;3.80;75.18;98629.83;1739036;82;21040;-81
2022/02/24 09:00:51;;;;;;;10.28;5.35;;;;;;;3.89;71.96;98617.63;1731703;83;20999;-81
2022/02/24 09:03:18;;;;;;;9.93;5.12;;;;;;;3.97;74.93;98613.33;1739082;82;21411;-81
2022/02/24 09:05:45;;;;;;;10.05;5.37;;;;;;;4.06;74.12;98608.15;1729897;82;20980;-81
2022/02/24 09:08:13;;;;;;;13.50;5.65;;;;;;;4.18;74.65;98606.05;1715551;83;21016;-80
2022/02/24 09:10:40;;;;;;;15.45;5.70;;;;;;;4.24;73.29;98615.70;1707791;84;21055;-81
2022/02/24 09:13:07;;;;;;;9.90;5.30;;;;;;;4.24;72.03;98609.15;1708645;84;21071;-81
2022/02/24 09:15:36;;;;;;;12.23;6.28;;;;;;;4.21;69.63;98609.12;1726850;83;21036;-82
2022/02/24 09:18:08;;;;;;;14.10;5.53;;;;;;;4.22;72.21;98614.37;1700051;84;21024;-81
2022/02/24 09:20:35;;;;;;;14.60;6.50;;;;;;;4.23;72.54;98607.37;1734135;82;21083;-81
2022/02/24 09:23:02;;;;;;;13.15;5.97;;;;;;;4.28;72.91;98604.33;1697659;84;21139;-83
2022/02/24 09:25:30;;;;;;;17.92;6.47;;;;;;;4.42;73.36;98599.60;1724285;83;21024;-83
2022/02/24 09:27:57;;;;;;;13.45;5.30;;;;;;;4.63;73.23;98602.77;1707027;83;21076;-84
2022/02/24 09:30:23;;;;;;;10.45;5.47;;;;;;;4.84;69.92;98601.98;1681270;84;21063;-85
2022/02/24 09:32:51;;;;;;;11.18;5.40;;;;;;;5.04;72.16;98588.02;1709515;84;21103;-86
2022/02/24 09:35:17;;;;;;;19.27;5.75;;;;;;;5.23;72.09;98586.75;1709516;84;21008;-85
2022/02/24 09:37:44;;;;;;;12.58;5.10;;;;;;;5.33;71.60;98591.14;1724415;83;21502;-84
2022/02/24 09:40:12;;;;;;;8.38;4.03;;;;;;;5.40;71.22;98590.27;1704099;84;21013;-85
2022/02/24 09:42:43;;;;;;;8.03;3.35;;;;;;;5.43;69.51;98584.59;1703491;83;21100;-85
2022/02/24 09:45:10;;;;;;;6.12;2.87;;;;;;;5.46;68.23;98589.40;1708104;84;21437;-85
2022/02/24 09:47:39;;;;;;;8.45;3.35;;;;;;;5.46;65.12;98581.94;1724674;82;21055;-85
2022/02/24 09:50:08;;;;;;;10.63;3.20;;;;;;;5.29;62.31;98582.81;1726058;81;21074;-83
2022/02/24 09:52:36;;;;;;;9.63;2.77;;;;;;;5.30;63.08;98581.93;1727694;82;21648;-84
2022/02/24 09:55:04;;;;;;;7.40;3.00;;;;;;;5.30;62.31;98579.30;1726820;82;21461;-84
2022/02/24 09:57:33;;;;;;;12.03;3.85;;;;;;;5.16;61.31;98572.72;1729937;82;21141;-84
2022/02/24 10:00:02;;;;;;;12.93;3.62;;;;;;;5.22;64.21;98562.64;1708367;82;21186;-85
2022/02/24 10:02:31;;;;;;;11.35;3.42;;;;;;;5.23;62.79;98561.78;1727450;82;20999;-84
2022/02/24 10:05:13;;;;;;;12.45;3.95;;;;;;;5.14;61.44;98570.52;1729632;82;20997;-84
2022/02/24 10:07:41;;;;;;;9.90;3.60;;;;;;;5.12;61.73;98560.45;1729349;82;21476;-80
2022/02/24 10:10:31;;;;;;;11.53;3.45;;;;;;;5.05;60.85;98552.98;1728618;82;21034;-80
2022/02/24 10:13:08;;;;;;;13.72;3.17;;;;;;;5.01;62.90;98552.11;1727084;82;21082;-81
2022/02/24 10:15:38;;;;;;;7.97;2.92;;;;;;;5.02;63.32;98559.12;1728947;82;21264;-81
2022/02/24 10:18:12;;;;;;;8.90;2.77;;;;;;;5.04;62.39;98557.81;1728398;82;21522;-80
2022/02/24 10:20:46;;;;;;;11.93;3.40;;;;;;;5.02;59.33;98555.59;1729782;82;20981;-80
2022/02/24 10:23:14;;;;;;;;;;;;;;;5.04;59.90;98545.10;1711023;82;21540;-79
2022/02/24 10:25:50;;;;;;;9.18;3.02;;;;;;;5.17;61.53;98544.67;1728909;82;20135;-79
2022/02/24 10:28:39;;;;;;;12.80;3.08;;;;;;;5.33;60.36;98540.31;1728299;82;21051;-80
2022/02/24 10:31:16;;;;;;;12.07;3.02;;;;;;;5.54;62.02;98540.77;1726180;82;21054;-79
2022/02/24 10:33:50;;;;;;;12.98;3.00;;;;;;;5.84;61.13;98532.83;1727029;82;21071;-79
2022/02/24 10:36:23;;;;;;;10.30;2.77;;;;;;;6.10;61.37;98531.95;1727944;82;21010;-80
2022/02/24 10:39:13;;;;;;;8.03;2.27;;;;;;;5.94;55.03;98535.45;1729797;81;21608;-80
2022/02/24 10:41:44;;;;;;;7.87;2.80;;;;;;;5.74;54.55;98534.61;1728677;82;21332;-80
2022/02/24 10:44:24;;;;;;;9.00;2.60;;;;;;;5.73;56.81;98528.92;1728636;82;21074;-80
2022/02/24 10:47:01;;;;;;;9.65;2.62;;;;;;;5.68;56.69;98527.59;1727743;82;21593;-82
2022/02/24 10:49:36;;;;;;;5.67;2.55;;;;;;;5.71;58.94;98527.59;1729237;82;21032;-82
2022/02/24 10:52:21;;;;;;;10.63;2.98;;;;;;;5.66;57.41;98523.64;1706437;82;21454;-81
2022/02/24 10:55:01;;;;;;;8.48;2.90;;;;;;;5.67;59.00;98505.70;1709716;83;21395;-80
2022/02/24 10:57:28;;;;;;;8.35;2.20;;;;;;;5.62;56.75;98517.09;1702276;83;21036;-80
2022/02/24 10:59:57;;;;;;;7.53;2.25;;;;;;;5.43;55.01;98510.52;1704028;83;21417;-81
2022/02/24 11:02:27;;;;;;;10.25;2.58;;;;;;;5.39;55.07;98512.28;1714096;83;21041;-80
2022/02/24 11:04:55;;;;;;;10.32;2.50;;;;;;;5.49;58.10;98512.28;1718143;83;21113;-81
2022/02/24 11:07:23;;;;;;;8.88;2.55;;;;;;;5.61;58.25;98512.25;1710760;83;21059;-80
2022/02/24 11:09:50;;;;;;;10.08;2.47;;;;;;;6.65;55.63;98496.62;1726755;83;21001;-80
2022/02/24 11:12:19;;;;;;;14.03;2.87;;;;;;;7.45;55.22;98502.63;1721834;83;21090;-79
2022/02/24 11:14:46;;;;;;;8.25;2.90;;;;;;;7.31;54.88;98499.66;1713629;83;21036;-80
2022/02/24 11:17:14;;;;;;;9.15;3.45;;;;;;;7.13;54.60;98495.41;1710198;83;21138;-81
2022/02/24 11:19:45;;;;;;;12.82;3.65;;;;;;;6.91;52.14;98496.89;1713187;83;21557;-80
2022/02/24 11:22:13;;;;;;;9.65;2.95;;;;;;;6.82;55.02;98488.59;1723100;83;21513;-80
2022/02/24 11:24:41;;;;;;;9.50;2.47;;;;;;;6.73;55.49;98490.84;1715953;83;20994;-81
2022/02/24 11:27:30;;;;;;;9.53;2.60;;;;;;;6.62;56.39;98483.45;1717884;83;21421;-81
2022/02/24 11:30:25;;;;;;;12.70;3.00;;;;;;;6.51;56.19;98484.83;1715830;83;21059;-81
2022/02/24 11:32:52;;;;;;;;;;;;;;;6.38;56.76;98485.33;1707633;83;21064;-82
2022/02/24 11:35:21;;;;;;;7.55;2.37;;;;;;;6.24;55.71;98485.83;1705033;83;20094;-81